createdAt,value
2018-08-25T00:01:02.665Z,96.50
2018-08-25T00:03:30.588Z,96.70
2018-08-25T00:05:58.529Z,96.70
2018-08-25T00:08:26.451Z,96.60
2018-08-25T00:10:55.386Z,96.40
2018-08-25T00:13:23.911Z,96.40
2018-08-25T00:15:51.844Z,96.40
2018-08-25T00:18:19.750Z,96.60
2018-08-25T00:20:47.668Z,96.50
2018-08-25T00:23:15.582Z,96.40
2018-08-25T00:25:43.492Z,96.60
2018-08-25T00:28:11.454Z,96.50
2018-08-25T00:30:44.946Z,96.40
2018-08-25T00:33:12.915Z,96.40
2018-08-25T00:35:40.823Z,96.50
2018-08-25T00:38:08.778Z,96.50
2018-08-25T00:40:36.646Z,96.50
2018-08-25T00:43:04.525Z,96.50
2018-08-25T00:45:32.474Z,96.50
2018-08-25T00:48:00.878Z,96.50
2018-08-25T00:50:30.201Z,96.60
2018-08-25T00:52:58.188Z,96.60
2018-08-25T00:55:26.083Z,96.40
2018-08-25T00:57:54.767Z,96.40
2018-08-25T01:00:22.719Z,96.50
2018-08-25T01:02:50.715Z,96.40
2018-08-25T01:05:19.176Z,96.40
2018-08-25T01:07:47.076Z,96.60
2018-08-25T01:10:15.000Z,96.50
2018-08-25T01:12:42.936Z,96.50
2018-08-25T01:15:12.369Z,96.40
2018-08-25T01:17:40.831Z,96.30
2018-08-25T01:20:08.745Z,96.20
2018-08-25T01:22:37.387Z,96.30
2018-08-25T01:25:05.631Z,96.30
2018-08-25T01:27:33.524Z,96.20
2018-08-25T01:30:01.423Z,96.30
2018-08-25T01:32:29.296Z,96.50
2018-08-25T01:34:57.231Z,96.30
2018-08-25T01:37:25.133Z,96.20
2018-08-25T01:39:53.063Z,96.20
2018-08-25T01:42:21.645Z,96.30
2018-08-25T01:44:49.568Z,96.30
2018-08-25T01:47:17.434Z,96.20
2018-08-25T01:49:45.327Z,96.30
2018-08-25T01:52:13.237Z,96.30
2018-08-25T01:54:41.099Z,96.30
2018-08-25T01:57:09.625Z,96.20
2018-08-25T01:59:37.637Z,96.40
2018-08-25T02:02:05.994Z,96.30
2018-08-25T02:04:36.560Z,96.20
2018-08-25T02:07:08.289Z,96.20
2018-08-25T02:09:39.422Z,96.20
2018-08-25T02:12:07.345Z,96.10
2018-08-25T02:14:35.827Z,96.20
2018-08-25T02:17:03.735Z,96.20
2018-08-25T02:19:32.150Z,96.10
2018-08-25T02:22:00.376Z,95.80
2018-08-25T02:24:28.237Z,95.70
2018-08-25T02:26:56.088Z,95.30
2018-08-25T02:29:23.971Z,95.50
2018-08-25T02:31:52.771Z,95.50
2018-08-25T02:34:21.197Z,95.60
2018-08-25T02:36:49.076Z,95.70
2018-08-25T02:39:17.671Z,95.70
2018-08-25T02:41:45.550Z,95.70
2018-08-25T02:44:13.859Z,95.70
2018-08-25T02:46:41.736Z,95.80
2018-08-25T02:49:09.694Z,95.60
2018-08-25T02:51:37.644Z,95.60
2018-08-25T02:54:05.842Z,95.60
2018-08-25T02:56:35.008Z,95.60
2018-08-25T02:59:03.292Z,95.70
2018-08-25T03:01:31.912Z,95.60
2018-08-25T03:03:59.838Z,95.50
2018-08-25T03:06:28.355Z,95.50
2018-08-25T03:08:56.270Z,95.60
2018-08-25T03:11:24.157Z,95.60
2018-08-25T03:13:52.117Z,95.60
2018-08-25T03:16:20.570Z,95.70
2018-08-25T03:18:49.123Z,95.60
2018-08-25T03:21:18.183Z,95.60
2018-08-25T03:23:46.086Z,95.50
2018-08-25T03:26:14.605Z,95.40
2018-08-25T03:28:42.491Z,95.40
2018-08-25T03:31:11.098Z,95.00
2018-08-25T03:33:39.044Z,95.20
2018-08-25T03:36:07.654Z,95.10
2018-08-25T03:38:38.440Z,95.10
2018-08-25T03:41:07.165Z,95.10
2018-08-25T03:43:37.923Z,95.30
2018-08-25T03:46:06.579Z,95.40
2018-08-25T03:48:37.854Z,95.40
2018-08-25T03:51:06.234Z,95.40
2018-08-25T03:53:39.562Z,95.10
2018-08-25T03:56:12.673Z,95.20
2018-08-25T03:58:42.366Z,95.20
2018-08-25T04:01:16.459Z,95.10
2018-08-25T04:03:49.486Z,95.30
2018-08-25T04:06:18.053Z,95.20
2018-08-25T04:08:49.445Z,95.30
2018-08-25T04:11:29.009Z,95.20
2018-08-25T04:14:02.870Z,95.20
2018-08-25T04:16:34.295Z,95.20
2018-08-25T04:19:04.150Z,95.10
2018-08-25T04:21:32.840Z,95.10
2018-08-25T04:24:13.529Z,95.10
2018-08-25T04:26:41.580Z,95.00
2018-08-25T04:29:13.383Z,95.00
2018-08-25T04:31:46.265Z,95.20
2018-08-25T04:34:19.424Z,95.20
2018-08-25T04:36:52.694Z,95.10
2018-08-25T04:39:24.292Z,95.30
2018-08-25T04:41:57.804Z,95.20
2018-08-25T04:44:31.502Z,95.40
2018-08-25T04:47:01.598Z,95.10
2018-08-25T04:49:34.003Z,95.20
2018-08-25T04:52:10.928Z,95.00
2018-08-25T04:54:43.769Z,95.10
2018-08-25T04:57:14.106Z,95.10
2018-08-25T04:59:45.643Z,95.10
2018-08-25T05:02:16.113Z,95.20
2018-08-25T05:04:47.891Z,95.30
2018-08-25T05:07:19.448Z,95.20
2018-08-25T05:09:51.340Z,95.30
2018-08-25T05:12:24.017Z,95.50
2018-08-25T05:14:57.020Z,95.50
2018-08-25T05:17:30.508Z,95.30
2018-08-25T05:20:01.250Z,95.20
2018-08-25T05:22:35.860Z,95.30
2018-08-25T05:25:07.722Z,95.50
2018-08-25T05:27:42.301Z,95.30
2018-08-25T05:30:16.582Z,95.40
2018-08-25T05:32:49.718Z,95.40
2018-08-25T05:35:20.033Z,95.40
2018-08-25T05:37:51.438Z,95.50
2018-08-25T05:40:26.780Z,95.50
2018-08-25T05:43:00.732Z,95.60
2018-08-25T05:45:32.812Z,95.40
2018-08-25T05:48:12.303Z,95.20
2018-08-25T05:50:44.737Z,95.20
2018-08-25T05:53:18.646Z,95.30
2018-08-25T05:55:51.107Z,95.20
2018-08-25T05:58:23.697Z,95.00
2018-08-25T06:01:06.020Z,95.00
2018-08-25T06:03:37.759Z,95.00
2018-08-25T06:06:10.129Z,95.10
2018-08-25T06:08:44.336Z,95.20
2018-08-25T06:11:17.251Z,95.30
2018-08-25T06:13:53.330Z,95.30
2018-08-25T06:16:25.855Z,95.20
2018-08-25T06:18:56.455Z,95.10
2018-08-25T06:21:30.220Z,95.10
2018-08-25T06:24:04.538Z,95.00
2018-08-25T06:26:36.746Z,95.00
2018-08-25T06:29:09.575Z,95.00
2018-08-25T06:31:40.406Z,94.80
2018-08-25T06:34:11.067Z,94.80
2018-08-25T06:36:41.803Z,94.80
2018-08-25T06:39:15.568Z,94.90
2018-08-25T06:41:47.171Z,94.70
2018-08-25T06:44:17.654Z,94.70
2018-08-25T06:46:48.777Z,94.80
2018-08-25T06:49:19.921Z,94.80
2018-08-25T06:51:49.975Z,94.20
2018-08-25T06:57:00.367Z,94.00
2018-08-25T06:59:32.296Z,93.90
2018-08-25T07:02:03.783Z,93.80
2018-08-25T07:04:37.815Z,93.80
2018-08-25T07:07:09.367Z,93.80
2018-08-25T07:09:40.888Z,93.80
2018-08-25T07:12:12.390Z,93.40
2018-08-25T07:14:46.489Z,93.50
2018-08-25T07:17:20.637Z,93.10
2018-08-25T07:19:50.864Z,93.20
2018-08-25T07:22:26.197Z,93.00
2018-08-25T07:24:56.094Z,93.20
2018-08-25T07:27:27.981Z,93.10
2018-08-25T07:30:00.708Z,93.30
2018-08-25T07:32:37.131Z,93.40
2018-08-25T07:35:07.874Z,93.30
2018-08-25T07:37:38.390Z,93.00
2018-08-25T07:40:09.841Z,93.20
2018-08-25T07:42:41.323Z,93.00
2018-08-25T07:45:16.224Z,92.90
2018-08-25T07:47:49.205Z,92.80
2018-08-25T07:50:23.739Z,92.80
2018-08-25T07:53:10.334Z,93.10
2018-08-25T07:55:39.083Z,92.60
2018-08-25T07:58:08.144Z,92.40
2018-08-25T08:00:36.635Z,92.60
2018-08-25T08:03:04.915Z,92.70
2018-08-25T08:05:32.812Z,92.60
2018-08-25T08:08:01.388Z,92.40
2018-08-25T08:10:29.972Z,92.70
2018-08-25T08:12:58.391Z,92.80
2018-08-25T08:15:26.885Z,92.80
2018-08-25T08:17:54.825Z,91.70
2018-08-25T08:20:23.135Z,91.80
2018-08-25T08:22:51.104Z,91.10
2018-08-25T08:25:19.041Z,91.00
2018-08-25T08:27:47.776Z,91.40
2018-08-25T08:30:15.694Z,90.40
2018-08-25T08:32:43.585Z,90.60
2018-08-25T08:35:11.453Z,90.50
2018-08-25T08:37:39.547Z,90.70
2018-08-25T08:40:07.553Z,90.70
2018-08-25T08:42:35.871Z,90.30
2018-08-25T08:45:04.451Z,90.40
2018-08-25T08:47:32.776Z,90.20
2018-08-25T08:50:00.668Z,89.50
2018-08-25T08:52:28.529Z,88.60
2018-08-25T08:54:57.852Z,90.00
2018-08-25T08:57:26.663Z,90.40
2018-08-25T08:59:54.521Z,90.70
2018-08-25T09:02:22.409Z,89.90
2018-08-25T09:04:50.905Z,89.00
2018-08-25T09:07:18.782Z,90.10
2018-08-25T09:09:46.638Z,90.30
2018-08-25T09:12:15.188Z,90.60
2018-08-25T09:14:43.073Z,90.30
2018-08-25T09:17:10.950Z,89.20
2018-08-25T09:19:39.826Z,89.60
2018-08-25T09:22:08.412Z,89.20
2018-08-25T09:24:36.314Z,88.60
2018-08-25T09:27:04.472Z,87.90
2018-08-25T09:29:33.076Z,89.10
2018-08-25T09:32:02.033Z,88.10
2018-08-25T09:34:30.884Z,88.70
2018-08-25T09:36:58.917Z,85.30
2018-08-25T09:39:26.743Z,86.20
2018-08-25T09:41:54.685Z,87.70
2018-08-25T09:44:22.642Z,87.20
2018-08-25T09:46:51.359Z,87.30
2018-08-25T09:49:19.220Z,87.70
2018-08-25T09:51:47.229Z,87.30
2018-08-25T09:54:16.387Z,86.60
2018-08-25T09:56:44.266Z,83.90
2018-08-25T09:59:12.799Z,84.00
2018-08-25T10:01:46.264Z,82.20
2018-08-25T10:04:14.946Z,83.10
2018-08-25T10:06:43.569Z,83.00
2018-08-25T10:09:13.257Z,85.50
2018-08-25T10:11:41.749Z,84.00
2018-08-25T10:14:10.236Z,84.90
2018-08-25T10:16:38.133Z,85.30
2018-08-25T10:19:06.062Z,84.70
2018-08-25T10:21:34.212Z,84.40
2018-08-25T10:24:02.083Z,83.20
2018-08-25T10:26:29.960Z,84.30
2018-08-25T10:28:57.865Z,84.80
2018-08-25T10:31:26.090Z,83.40
2018-08-25T10:33:54.689Z,84.80
2018-08-25T10:36:22.618Z,85.40
2018-08-25T10:38:50.564Z,84.00
2018-08-25T10:41:19.593Z,84.90
2018-08-25T10:43:47.760Z,84.20
2018-08-25T10:46:15.835Z,82.70
2018-08-25T10:48:43.735Z,83.60
2018-08-25T10:51:11.902Z,81.90
2018-08-25T10:53:40.358Z,83.80
2018-08-25T10:56:08.309Z,84.40
2018-08-25T10:58:36.293Z,82.80
2018-08-25T11:01:04.251Z,81.50
2018-08-25T11:03:32.799Z,81.30
2018-08-25T11:06:00.664Z,81.70
2018-08-25T11:08:28.571Z,80.80
2018-08-25T11:10:56.477Z,80.40
2018-08-25T11:13:24.393Z,82.40
2018-08-25T11:15:52.280Z,82.90
2018-08-25T11:18:20.224Z,81.80
2018-08-25T11:20:48.203Z,80.90
2018-08-25T11:23:16.092Z,80.60
2018-08-25T11:25:44.025Z,80.20
2018-08-25T11:28:11.919Z,80.00
2018-08-25T11:30:39.848Z,81.20
2018-08-25T11:33:07.815Z,81.00
2018-08-25T11:35:35.742Z,81.80
2018-08-25T11:38:03.756Z,82.70
2018-08-25T11:40:31.882Z,80.60
2018-08-25T11:42:59.832Z,81.30
2018-08-25T11:45:28.518Z,82.30
2018-08-25T11:47:57.182Z,81.80
2018-08-25T11:50:25.046Z,80.90
2018-08-25T11:52:52.920Z,80.30
2018-08-25T11:55:20.842Z,81.40
2018-08-25T11:57:48.711Z,82.30
2018-08-25T12:00:16.601Z,80.40
2018-08-25T12:02:44.462Z,80.00
2018-08-25T12:05:12.408Z,79.40
2018-08-25T12:07:40.959Z,81.10
2018-08-25T12:10:09.662Z,80.00
2018-08-25T12:12:37.581Z,79.50
2018-08-25T12:15:06.276Z,78.50
2018-08-25T12:17:35.356Z,79.20
2018-08-25T12:20:03.470Z,77.50
2018-08-25T12:22:32.044Z,75.80
2018-08-25T12:24:59.963Z,75.70
2018-08-25T12:27:27.895Z,75.50
2018-08-25T12:29:55.893Z,75.30
2018-08-25T12:32:25.039Z,75.20
2018-08-25T12:34:52.938Z,75.70
2018-08-25T12:37:21.521Z,74.50
2018-08-25T12:39:50.183Z,76.50
2018-08-25T12:42:18.042Z,75.20
2018-08-25T12:44:46.451Z,76.50
2018-08-25T12:47:14.966Z,76.20
2018-08-25T12:49:42.896Z,77.00
2018-08-25T12:52:10.843Z,75.80
2018-08-25T12:54:38.752Z,73.10
2018-08-25T12:57:06.627Z,70.90
2018-08-25T12:59:34.533Z,68.00
2018-08-25T13:02:02.885Z,69.80
2018-08-25T13:04:30.869Z,69.60
2018-08-25T13:06:58.757Z,70.00
2018-08-25T13:09:26.982Z,70.70
2018-08-25T13:11:54.898Z,68.40
2018-08-25T13:14:22.780Z,69.50
2018-08-25T13:16:50.700Z,69.90
2018-08-25T13:19:18.632Z,68.60
2018-08-25T13:21:46.534Z,66.20
2018-08-25T13:24:14.448Z,66.90
2018-08-25T13:26:42.343Z,71.10
2018-08-25T13:29:10.993Z,68.30
2018-08-25T13:31:38.885Z,69.70
2018-08-25T13:34:06.774Z,70.10
2018-08-25T13:36:35.209Z,65.90
2018-08-25T13:39:05.789Z,67.50
2018-08-25T13:41:33.800Z,68.30
2018-08-25T13:44:01.727Z,67.50
2018-08-25T13:46:29.613Z,67.80
2018-08-25T13:48:57.653Z,69.90
2018-08-25T13:51:25.620Z,70.40
2018-08-25T13:53:53.641Z,68.00
2018-08-25T13:56:21.768Z,68.50
2018-08-25T13:58:50.281Z,69.00
2018-08-25T14:01:18.179Z,68.50
2018-08-25T14:03:46.109Z,66.60
2018-08-25T14:06:14.016Z,66.80
2018-08-25T14:08:41.963Z,67.00
2018-08-25T14:11:09.913Z,66.10
2018-08-25T14:13:37.834Z,65.00
2018-08-25T14:16:05.863Z,68.80
2018-08-25T14:18:33.717Z,66.10
2018-08-25T14:21:01.606Z,66.10
2018-08-25T14:23:29.524Z,66.50
2018-08-25T14:25:57.469Z,65.80
2018-08-25T14:28:25.385Z,66.70
2018-08-25T14:30:54.687Z,67.60
2018-08-25T14:33:23.255Z,66.90
2018-08-25T14:35:51.162Z,66.60
2018-08-25T14:38:19.082Z,66.80
2018-08-25T14:40:47.010Z,66.40
2018-08-25T14:43:14.898Z,65.50
2018-08-25T14:45:42.790Z,65.30
2018-08-25T14:48:12.513Z,65.20
2018-08-25T14:50:41.617Z,67.00
2018-08-25T14:53:10.306Z,67.10
2018-08-25T14:55:39.533Z,63.40
2018-08-25T14:58:07.466Z,66.10
2018-08-25T15:00:35.867Z,67.20
2018-08-25T15:03:03.712Z,67.60
2018-08-25T15:05:31.578Z,66.90
2018-08-25T15:07:59.785Z,66.30
2018-08-25T15:10:28.115Z,66.50
2018-08-25T15:12:56.504Z,64.50
2018-08-25T15:15:24.460Z,64.40
2018-08-25T15:17:52.319Z,65.50
2018-08-25T15:20:20.183Z,66.60
2018-08-25T15:22:48.135Z,66.60
2018-08-25T15:25:16.615Z,67.70
2018-08-25T15:27:45.044Z,67.90
2018-08-25T15:30:13.197Z,65.20
2018-08-25T15:32:41.097Z,65.30
2018-08-25T15:35:09.051Z,66.70
2018-08-25T15:37:36.986Z,67.20
2018-08-25T15:40:05.468Z,68.10
2018-08-25T15:42:33.313Z,67.90
2018-08-25T15:45:01.245Z,67.90
2018-08-25T15:47:29.180Z,68.60
2018-08-25T15:49:57.375Z,68.20
2018-08-25T15:52:25.676Z,68.00
2018-08-25T15:54:54.236Z,67.80
2018-08-25T15:57:22.301Z,68.20
2018-08-25T15:59:50.258Z,69.60
2018-08-25T16:02:18.754Z,70.50
2018-08-25T16:04:46.652Z,71.10
2018-08-25T16:07:15.712Z,71.80
2018-08-25T16:09:44.026Z,69.90
2018-08-25T16:12:12.013Z,69.70
2018-08-25T16:14:39.907Z,69.70
2018-08-25T16:17:07.886Z,70.10
2018-08-25T16:19:36.529Z,70.60
2018-08-25T16:22:04.509Z,70.30
2018-08-25T16:24:32.391Z,70.10
2018-08-25T16:27:00.279Z,70.20
2018-08-25T16:29:28.207Z,70.50
2018-08-25T16:31:56.873Z,70.70
2018-08-25T16:34:25.426Z,71.70
2018-08-25T16:36:53.303Z,72.50
2018-08-25T16:39:21.808Z,72.60
2018-08-25T16:41:51.058Z,72.90
2018-08-25T16:44:18.972Z,74.00
2018-08-25T16:46:47.523Z,74.40
2018-08-25T16:49:16.285Z,74.90
2018-08-25T16:51:44.208Z,75.70
2018-08-25T16:54:12.138Z,76.50
2018-08-25T16:56:40.080Z,77.00
2018-08-25T16:59:09.373Z,77.00
2018-08-25T17:01:38.176Z,76.30
2018-08-25T17:04:06.777Z,77.00
2018-08-25T17:06:34.731Z,77.70
2018-08-25T17:09:04.519Z,78.10
2018-08-25T17:11:34.150Z,78.20
2018-08-25T17:14:02.761Z,78.00
2018-08-25T17:16:31.222Z,79.60
2018-08-25T17:19:00.505Z,79.50
2018-08-25T17:21:31.094Z,79.90
2018-08-25T17:24:00.995Z,80.80
2018-08-25T17:26:31.896Z,81.20
2018-08-25T17:29:02.390Z,80.70
2018-08-25T17:31:34.468Z,80.90
2018-08-25T17:34:06.722Z,81.00
2018-08-25T17:36:35.495Z,81.20
2018-08-25T17:39:05.865Z,81.70
2018-08-25T17:41:33.790Z,83.20
2018-08-25T17:44:01.724Z,83.20
2018-08-25T17:46:29.583Z,83.10
2018-08-25T17:48:57.454Z,83.20
2018-08-25T17:51:26.633Z,84.10
2018-08-25T17:53:55.212Z,84.80
2018-08-25T17:56:23.083Z,85.30
2018-08-25T17:58:51.039Z,85.50
2018-08-25T18:01:18.949Z,85.80
2018-08-25T18:03:47.520Z,86.40
2018-08-25T18:06:16.033Z,86.80
2018-08-25T18:08:44.286Z,87.40
2018-08-25T18:11:13.115Z,87.60
2018-08-25T18:13:41.380Z,88.00
2018-08-25T18:16:09.300Z,88.50
2018-08-25T18:18:37.180Z,89.30
2018-08-25T18:21:05.132Z,89.50
2018-08-25T18:23:33.154Z,90.00
2018-08-25T18:26:01.066Z,90.00
2018-08-25T18:28:28.975Z,90.30
2018-08-25T18:30:57.467Z,90.70
2018-08-25T18:33:25.422Z,90.70
2018-08-25T18:35:53.405Z,90.70
2018-08-25T18:38:21.365Z,90.90
2018-08-25T18:40:49.311Z,90.90
2018-08-25T18:43:17.236Z,91.40
2018-08-25T18:45:45.151Z,91.40
2018-08-25T18:48:13.157Z,91.60
2018-08-25T18:50:41.774Z,91.70
2018-08-25T18:53:09.679Z,91.60
2018-08-25T18:55:37.683Z,91.80
2018-08-25T18:58:06.017Z,91.90
2018-08-25T19:00:33.910Z,92.10
2018-08-25T19:03:01.866Z,92.10
2018-08-25T19:05:29.840Z,92.10
2018-08-25T19:07:57.785Z,92.20
2018-08-25T19:10:26.391Z,92.20
2018-08-25T19:12:55.304Z,92.40
2018-08-25T19:15:23.245Z,92.30
2018-08-25T19:17:52.075Z,92.60
2018-08-25T19:20:20.005Z,92.50
2018-08-25T19:22:47.900Z,92.60
2018-08-25T19:25:17.043Z,92.70
2018-08-25T19:27:44.992Z,92.80
2018-08-25T19:30:12.938Z,92.50
2018-08-25T19:32:41.557Z,92.60
2018-08-25T19:35:09.471Z,92.50
2018-08-25T19:37:38.069Z,92.60
2018-08-25T19:40:06.227Z,92.60
2018-08-25T19:42:34.197Z,92.60
2018-08-25T19:45:02.153Z,92.50
2018-08-25T19:47:30.106Z,92.60
2018-08-25T19:49:57.996Z,92.60
2018-08-25T19:52:25.935Z,92.70
2018-08-25T19:54:53.825Z,92.80
2018-08-25T19:57:22.136Z,92.80
2018-08-25T19:59:50.152Z,92.80
2018-08-25T20:02:18.294Z,92.70
2018-08-25T20:04:46.762Z,92.90
2018-08-25T20:07:15.349Z,92.70
2018-08-25T20:09:43.250Z,92.80
2018-08-25T20:12:11.797Z,92.80
2018-08-25T20:14:39.732Z,92.80
2018-08-25T20:17:07.635Z,92.80
2018-08-25T20:19:35.547Z,92.80
2018-08-25T20:22:04.129Z,92.80
2018-08-25T20:24:33.389Z,92.80
2018-08-25T20:27:01.433Z,92.90
2018-08-25T20:29:29.386Z,92.70
2018-08-25T20:31:57.386Z,92.80
2018-08-25T20:34:25.308Z,92.90
2018-08-25T20:36:53.245Z,93.00
2018-08-25T20:39:21.140Z,93.00
2018-08-25T20:41:49.064Z,93.00
2018-08-25T20:44:17.965Z,93.00
2018-08-25T20:46:45.862Z,93.10
2018-08-25T20:49:14.264Z,93.20
2018-08-25T20:51:42.679Z,93.40
2018-08-25T20:54:11.855Z,93.30
2018-08-25T20:56:39.780Z,93.20
2018-08-25T20:59:07.712Z,93.30
2018-08-25T21:01:35.655Z,93.00
2018-08-25T21:04:03.640Z,92.90
2018-08-25T21:06:31.589Z,92.70
2018-08-25T21:08:59.541Z,92.50
2018-08-25T21:11:27.494Z,92.50
2018-08-25T21:13:55.563Z,92.20
2018-08-25T21:16:23.959Z,92.30
2018-08-25T21:18:51.950Z,92.40
2018-08-25T21:21:20.210Z,92.50
2018-08-25T21:23:48.470Z,92.20
2018-08-25T21:26:16.390Z,92.30
2018-08-25T21:28:44.673Z,92.30
2018-08-25T21:31:12.589Z,92.20
2018-08-25T21:33:40.990Z,92.40
2018-08-25T21:36:08.863Z,92.20
2018-08-25T21:38:37.461Z,92.30
2018-08-25T21:41:05.706Z,92.30
2018-08-25T21:43:33.891Z,92.40
2018-08-25T21:46:01.776Z,92.30
2018-08-25T21:48:29.749Z,92.30
2018-08-25T21:50:59.009Z,92.30
2018-08-25T21:53:26.900Z,92.30
2018-08-25T21:55:54.768Z,92.50
2018-08-25T21:58:22.724Z,92.80
2018-08-25T22:00:55.413Z,92.80
2018-08-25T22:03:24.656Z,92.90
2018-08-25T22:05:53.813Z,92.80
2018-08-25T22:08:22.614Z,93.00
2018-08-25T22:10:52.058Z,93.00
2018-08-25T22:13:19.975Z,92.90
2018-08-25T22:15:48.866Z,93.10
2018-08-25T22:18:17.056Z,93.00
2018-08-25T22:20:45.039Z,93.00
2018-08-25T22:23:13.051Z,92.90
2018-08-25T22:25:41.546Z,93.10
2018-08-25T22:28:09.475Z,93.10
2018-08-25T22:30:38.045Z,93.20
2018-08-25T22:33:06.017Z,93.40
2018-08-25T22:35:34.664Z,93.50
2018-08-25T22:38:02.712Z,93.40
2018-08-25T22:40:30.683Z,93.60
2018-08-25T22:42:58.628Z,93.50
2018-08-25T22:45:27.153Z,93.30
2018-08-25T22:47:55.088Z,93.20
2018-08-25T22:50:23.553Z,93.20
2018-08-25T22:52:52.318Z,93.10
2018-08-25T22:55:21.697Z,93.20
2018-08-25T22:57:50.180Z,93.30
2018-08-25T23:00:18.479Z,93.30
2018-08-25T23:02:46.365Z,93.40
2018-08-25T23:05:14.289Z,93.30
2018-08-25T23:07:42.874Z,93.40
2018-08-25T23:10:10.731Z,93.30
2018-08-25T23:12:38.633Z,93.20
2018-08-25T23:15:06.600Z,93.40
2018-08-25T23:17:34.955Z,93.40
2018-08-25T23:20:03.000Z,93.50
2018-08-25T23:22:31.171Z,93.50
2018-08-25T23:24:59.059Z,93.60
2018-08-25T23:27:26.971Z,93.70
2018-08-25T23:29:54.908Z,93.60
2018-08-25T23:32:22.782Z,93.70
2018-08-25T23:34:51.234Z,93.60
2018-08-25T23:37:19.736Z,93.60
2018-08-25T23:39:47.639Z,93.60
2018-08-25T23:42:16.147Z,93.50
2018-08-25T23:44:44.256Z,93.80
2018-08-25T23:47:12.185Z,93.70
2018-08-25T23:49:40.095Z,93.60
2018-08-25T23:52:08.993Z,93.90
2018-08-25T23:54:36.885Z,93.70
2018-08-25T23:57:05.061Z,94.00
2018-08-25T23:59:32.962Z,93.70
